createdAt,value
2023-01-28T00:00:52.163Z,75.12
2023-01-28T00:03:18.917Z,75.22
2023-01-28T00:05:45.621Z,75.15
2023-01-28T00:08:13.556Z,75.10
2023-01-28T00:10:41.774Z,75.32
2023-01-28T00:13:11.437Z,75.17
2023-01-28T00:15:38.170Z,75.38
2023-01-28T00:18:04.896Z,75.09
2023-01-28T00:20:31.638Z,75.10
2023-01-28T00:22:58.423Z,75.31
2023-01-28T00:25:25.101Z,75.26
2023-01-28T00:27:51.845Z,75.58
2023-01-28T00:30:19.451Z,75.78
2023-01-28T00:32:46.133Z,75.80
2023-01-28T00:35:13.687Z,76.13
2023-01-28T00:37:41.533Z,75.82
2023-01-28T00:40:09.937Z,75.86
2023-01-28T00:42:37.384Z,76.21
2023-01-28T00:45:04.415Z,76.20
2023-01-28T00:47:31.514Z,76.48
2023-01-28T00:49:58.344Z,76.32
2023-01-28T00:52:25.693Z,76.53
2023-01-28T00:54:54.431Z,76.77
2023-01-28T00:57:21.165Z,76.21
2023-01-28T00:59:47.869Z,76.69
2023-01-28T01:02:14.971Z,76.72
2023-01-28T01:04:41.852Z,76.49
2023-01-28T01:07:08.572Z,76.56
2023-01-28T01:09:35.279Z,76.34
2023-01-28T01:12:03.347Z,76.51
2023-01-28T01:14:30.055Z,76.48
2023-01-28T01:16:56.795Z,76.28
2023-01-28T01:19:23.511Z,76.33
2023-01-28T01:21:50.730Z,76.29
2023-01-28T01:24:17.755Z,76.11
2023-01-28T01:26:44.531Z,76.07
2023-01-28T01:29:11.250Z,76.14
2023-01-28T01:31:38.259Z,76.49
2023-01-28T01:34:05.322Z,76.47
2023-01-28T01:36:32.140Z,76.39
2023-01-28T01:38:58.877Z,76.39
2023-01-28T01:41:30.723Z,76.47
2023-01-28T01:43:59.714Z,76.27
2023-01-28T01:46:35.008Z,76.47
2023-01-28T01:49:16.240Z,76.40
2023-01-28T01:51:43.689Z,76.32
2023-01-28T01:54:10.382Z,76.51
2023-01-28T01:56:39.841Z,76.51
2023-01-28T01:59:10.271Z,76.64
2023-01-28T02:01:36.914Z,76.62
2023-01-28T02:04:10.984Z,76.96
2023-01-28T02:06:40.047Z,76.97
2023-01-28T02:09:21.085Z,76.92
2023-01-28T02:11:50.275Z,77.19
2023-01-28T02:14:30.568Z,77.80
2023-01-28T02:16:59.035Z,77.87
2023-01-28T02:19:29.652Z,78.01
2023-01-28T02:22:19.742Z,77.80
2023-01-28T02:25:13.712Z,77.50
2023-01-28T02:27:58.168Z,78.55
2023-01-28T02:30:35.442Z,77.78
2023-01-28T02:33:16.302Z,78.14
2023-01-28T02:35:49.979Z,78.16
2023-01-28T02:38:26.455Z,78.21
2023-01-28T02:41:09.746Z,78.70
2023-01-28T02:43:43.027Z,78.41
2023-01-28T02:46:37.875Z,77.73
2023-01-28T02:49:08.267Z,77.99
2023-01-28T02:52:02.149Z,78.57
2023-01-28T02:54:50.928Z,78.95
2023-01-28T02:57:17.649Z,78.35
2023-01-28T02:59:56.167Z,78.46
2023-01-28T03:02:29.218Z,78.27
2023-01-28T03:06:03.212Z,78.73
2023-01-28T03:08:53.659Z,78.44
2023-01-28T03:11:39.095Z,78.35
2023-01-28T03:14:28.246Z,78.54
2023-01-28T03:17:16.259Z,78.23
2023-01-28T03:20:01.788Z,78.53
2023-01-28T03:22:51.331Z,78.64
2023-01-28T03:25:38.866Z,79.39
2023-01-28T03:28:28.580Z,78.58
2023-01-28T03:31:23.163Z,78.49
2023-01-28T03:34:12.115Z,78.40
2023-01-28T03:36:51.517Z,78.70
2023-01-28T03:39:37.985Z,79.24
2023-01-28T03:42:10.622Z,79.15
2023-01-28T03:44:55.222Z,79.01
2023-01-28T03:47:27.858Z,79.72
2023-01-28T03:49:55.814Z,79.54
2023-01-28T03:52:25.934Z,79.99
2023-01-28T03:54:55.924Z,80.06
2023-01-28T03:57:24.825Z,80.11
2023-01-28T03:59:52.806Z,80.75
2023-01-28T04:02:21.620Z,79.93
2023-01-28T04:04:52.557Z,80.39
2023-01-28T04:07:19.412Z,80.72
2023-01-28T04:10:13.357Z,80.60
2023-01-28T04:12:51.283Z,80.86
2023-01-28T04:15:19.362Z,81.90
2023-01-28T04:17:48.885Z,81.29
2023-01-28T04:20:23.642Z,82.17
2023-01-28T04:22:50.340Z,81.47
2023-01-28T04:25:36.987Z,82.12
2023-01-28T04:28:06.679Z,82.50
2023-01-28T04:30:34.525Z,82.53
2023-01-28T04:33:21.676Z,81.95
2023-01-28T04:35:54.297Z,82.37
2023-01-28T04:38:56.487Z,82.96
2023-01-28T04:41:45.980Z,83.01
2023-01-28T04:44:21.938Z,83.15
2023-01-28T04:46:54.845Z,83.13
2023-01-28T04:49:40.963Z,83.62
2023-01-28T04:52:25.214Z,83.47
2023-01-28T04:55:07.735Z,83.36
2023-01-28T04:57:34.604Z,83.16
2023-01-28T05:00:01.367Z,83.39
2023-01-28T05:02:28.346Z,83.13
2023-01-28T05:04:55.103Z,83.11
2023-01-28T05:07:42.105Z,83.06
2023-01-28T05:10:09.443Z,83.12
2023-01-28T05:12:36.348Z,82.68
2023-01-28T05:15:07.749Z,83.09
2023-01-28T05:17:34.485Z,82.44
2023-01-28T05:20:01.552Z,82.17
2023-01-28T05:22:29.234Z,82.31
2023-01-28T05:25:15.012Z,82.21
2023-01-28T05:27:41.986Z,82.21
2023-01-28T05:30:09.287Z,82.28
2023-01-28T05:32:36.155Z,82.15
2023-01-28T05:35:03.035Z,81.92
2023-01-28T05:37:29.943Z,82.13
2023-01-28T05:39:57.429Z,81.69
2023-01-28T05:42:24.258Z,82.06
2023-01-28T05:44:56.662Z,82.10
2023-01-28T05:47:38.886Z,81.94
2023-01-28T05:50:25.912Z,82.00
2023-01-28T05:53:14.370Z,82.11
2023-01-28T05:55:43.980Z,82.22
2023-01-28T05:58:10.720Z,81.93
2023-01-28T06:00:37.453Z,81.84
2023-01-28T06:03:05.186Z,81.78
2023-01-28T06:05:32.465Z,81.77
2023-01-28T06:08:00.897Z,81.59
2023-01-28T06:10:27.701Z,81.50
2023-01-28T06:12:55.200Z,81.04
2023-01-28T06:16:00.438Z,81.55
2023-01-28T06:18:38.562Z,81.33
2023-01-28T06:21:05.532Z,81.13
2023-01-28T06:23:32.280Z,81.53
2023-01-28T06:25:59.134Z,81.70
2023-01-28T06:28:26.097Z,81.60
2023-01-28T06:30:53.577Z,81.18
2023-01-28T06:33:20.595Z,80.98
2023-01-28T06:35:47.252Z,80.88
2023-01-28T06:38:14.162Z,81.41
2023-01-28T06:40:40.850Z,81.46
2023-01-28T06:43:07.621Z,81.70
2023-01-28T06:45:34.409Z,81.66
2023-01-28T06:48:01.111Z,81.55
2023-01-28T06:50:27.833Z,81.58
2023-01-28T06:52:54.516Z,81.25
2023-01-28T06:55:21.265Z,81.58
2023-01-28T06:57:47.995Z,81.77
2023-01-28T07:00:16.818Z,81.43
2023-01-28T07:02:43.776Z,81.23
2023-01-28T07:05:10.691Z,80.62
2023-01-28T07:07:37.528Z,80.73
2023-01-28T07:10:05.464Z,80.82
2023-01-28T07:12:32.114Z,80.88
2023-01-28T07:14:58.844Z,81.09
2023-01-28T07:17:25.544Z,80.61
2023-01-28T07:19:52.284Z,80.46
2023-01-28T07:22:18.945Z,80.73
2023-01-28T07:24:45.576Z,80.38
2023-01-28T07:27:12.219Z,80.54
2023-01-28T07:29:38.938Z,80.81
2023-01-28T07:32:07.256Z,81.09
2023-01-28T07:34:34.200Z,80.85
2023-01-28T07:37:08.892Z,81.16
2023-01-28T07:39:35.645Z,81.58
2023-01-28T07:42:02.829Z,80.36
2023-01-28T07:44:32.616Z,80.72
2023-01-28T07:46:59.291Z,80.78
2023-01-28T07:49:25.992Z,81.17
2023-01-28T07:51:52.714Z,80.87
2023-01-28T07:54:19.436Z,81.08
2023-01-28T07:56:46.317Z,80.68
2023-01-28T07:59:12.995Z,80.42
2023-01-28T08:01:39.703Z,80.40
2023-01-28T08:04:06.657Z,80.12
2023-01-28T08:06:37.781Z,80.25
2023-01-28T08:09:06.102Z,80.11
2023-01-28T08:11:33.218Z,80.01
2023-01-28T08:14:00.368Z,80.07
2023-01-28T08:16:27.680Z,80.50
2023-01-28T08:18:54.302Z,79.87
2023-01-28T08:21:20.989Z,79.92
2023-01-28T08:23:47.756Z,80.13
2023-01-28T08:26:14.406Z,80.33
2023-01-28T08:28:41.191Z,80.27
2023-01-28T08:31:08.435Z,79.96
2023-01-28T08:33:35.238Z,80.25
2023-01-28T08:36:05.458Z,80.62
2023-01-28T08:38:32.219Z,80.30
2023-01-28T08:40:59.950Z,80.05
2023-01-28T08:43:26.696Z,80.16
2023-01-28T08:45:53.398Z,80.05
2023-01-28T08:48:20.522Z,79.92
2023-01-28T08:50:47.357Z,80.27
2023-01-28T08:53:16.763Z,79.53
2023-01-28T08:55:43.513Z,79.98
2023-01-28T08:58:12.138Z,79.93
2023-01-28T09:00:39.706Z,79.63
2023-01-28T09:03:06.876Z,79.49
2023-01-28T09:05:37.390Z,79.90
2023-01-28T09:08:06.176Z,79.29
2023-01-28T09:10:32.912Z,79.47
2023-01-28T09:13:02.519Z,79.42
2023-01-28T09:15:29.236Z,79.28
2023-01-28T09:17:59.302Z,79.25
2023-01-28T09:20:26.538Z,79.20
2023-01-28T09:22:53.392Z,79.58
2023-01-28T09:25:20.122Z,78.94
2023-01-28T09:27:46.875Z,79.42
2023-01-28T09:30:14.418Z,79.34
2023-01-28T09:32:41.227Z,78.94
2023-01-28T09:35:08.406Z,79.14
2023-01-28T09:37:35.216Z,79.74
2023-01-28T09:40:02.486Z,79.97
2023-01-28T09:42:34.955Z,79.76
2023-01-28T09:45:09.772Z,79.01
2023-01-28T09:47:39.358Z,79.03
2023-01-28T09:50:09.886Z,79.26
2023-01-28T09:52:39.627Z,79.23
2023-01-28T09:55:15.354Z,79.35
2023-01-28T09:57:46.662Z,78.56
2023-01-28T10:00:15.945Z,78.78
2023-01-28T10:02:51.174Z,78.84
2023-01-28T10:05:31.135Z,77.86
2023-01-28T10:08:26.549Z,78.07
2023-01-28T10:11:07.042Z,78.51
2023-01-28T10:13:48.021Z,78.28
2023-01-28T10:16:23.944Z,78.59
2023-01-28T10:19:19.510Z,78.66
2023-01-28T10:22:02.058Z,78.21
2023-01-28T10:24:31.735Z,77.33
2023-01-28T10:26:58.497Z,77.30
2023-01-28T10:29:31.139Z,76.31
2023-01-28T10:32:30.875Z,76.30
2023-01-28T10:35:04.176Z,76.40
2023-01-28T10:37:34.557Z,76.80
2023-01-28T10:40:02.979Z,76.98
2023-01-28T10:42:32.944Z,76.95
2023-01-28T10:45:03.591Z,76.22
2023-01-28T10:47:35.198Z,76.67
2023-01-28T10:50:02.856Z,76.26
2023-01-28T10:52:29.557Z,76.32
2023-01-28T10:55:04.810Z,76.60
2023-01-28T10:57:33.931Z,76.39
2023-01-28T11:00:11.962Z,75.54
2023-01-28T11:02:38.783Z,76.11
2023-01-28T11:05:21.226Z,75.29
2023-01-28T11:07:49.875Z,76.24
2023-01-28T11:10:32.270Z,75.40
2023-01-28T11:13:00.503Z,75.45
2023-01-28T11:15:27.283Z,75.70
2023-01-28T11:18:00.249Z,74.91
2023-01-28T11:20:28.667Z,75.07
2023-01-28T11:22:55.918Z,75.26
2023-01-28T11:25:32.631Z,75.54
2023-01-28T11:28:01.183Z,75.79
2023-01-28T11:30:30.303Z,74.44
2023-01-28T11:33:00.931Z,75.63
2023-01-28T11:35:30.677Z,74.82
2023-01-28T11:37:58.949Z,74.36
2023-01-28T11:40:25.988Z,74.97
2023-01-28T11:42:54.007Z,75.69
2023-01-28T11:45:32.684Z,74.70
2023-01-28T11:48:18.355Z,74.80
2023-01-28T11:51:05.179Z,74.54
2023-01-28T11:54:00.633Z,74.67
2023-01-28T11:56:36.521Z,73.72
2023-01-28T11:59:23.025Z,73.97
2023-01-28T12:02:09.821Z,74.06
2023-01-28T12:05:00.306Z,74.01
2023-01-28T12:07:42.572Z,74.72
2023-01-28T12:10:27.196Z,74.13
2023-01-28T12:13:21.506Z,74.17
2023-01-28T12:15:49.829Z,74.54
2023-01-28T12:18:19.810Z,73.75
2023-01-28T12:21:11.303Z,74.20
2023-01-28T12:24:03.220Z,73.01
2023-01-28T12:26:35.626Z,73.82
2023-01-28T12:29:19.050Z,77.11
2023-01-28T12:32:10.019Z,74.05
2023-01-28T12:35:12.159Z,73.16
2023-01-28T12:38:01.534Z,71.50
2023-01-28T12:40:40.164Z,72.70
2023-01-28T12:43:39.765Z,73.16
2023-01-28T12:46:19.056Z,72.61
2023-01-28T12:48:53.505Z,72.94
2023-01-28T12:51:25.216Z,72.15
2023-01-28T12:54:16.662Z,71.32
2023-01-28T12:56:52.074Z,72.01
2023-01-28T12:59:25.083Z,70.93
2023-01-28T13:01:57.887Z,72.27
2023-01-28T13:04:39.824Z,71.06
2023-01-28T13:07:14.379Z,72.30
2023-01-28T13:09:48.822Z,70.70
2023-01-28T13:12:15.654Z,72.21
2023-01-28T13:14:42.597Z,72.00
2023-01-28T13:17:13.505Z,71.90
2023-01-28T13:19:41.285Z,71.15
2023-01-28T13:22:31.510Z,70.47
2023-01-28T13:25:13.999Z,70.72
2023-01-28T13:27:43.259Z,71.18
2023-01-28T13:30:33.005Z,70.59
2023-01-28T13:33:07.090Z,70.24
2023-01-28T13:35:40.780Z,70.00
2023-01-28T13:38:18.481Z,70.04
2023-01-28T13:40:55.352Z,70.33
2023-01-28T13:43:34.005Z,70.69
2023-01-28T13:46:04.116Z,69.58
2023-01-28T13:48:39.504Z,70.09
2023-01-28T13:51:15.654Z,68.84
2023-01-28T13:53:48.818Z,69.19
2023-01-28T13:56:22.204Z,68.78
2023-01-28T13:58:51.886Z,69.25
2023-01-28T14:01:39.194Z,69.61
2023-01-28T14:04:42.797Z,67.97
2023-01-28T14:07:31.327Z,69.11
2023-01-28T14:10:03.769Z,69.27
2023-01-28T14:12:45.762Z,68.69
2023-01-28T14:15:37.999Z,68.89
2023-01-28T14:18:13.708Z,68.67
2023-01-28T14:20:45.022Z,69.28
2023-01-28T14:23:17.686Z,67.89
2023-01-28T14:25:50.218Z,68.00
2023-01-28T14:28:35.993Z,67.83
2023-01-28T14:31:15.382Z,68.48
2023-01-28T14:33:43.284Z,68.69
2023-01-28T14:36:11.627Z,68.31
2023-01-28T14:38:41.445Z,68.97
2023-01-28T14:41:09.346Z,68.16
2023-01-28T14:43:36.536Z,68.64
2023-01-28T14:46:43.118Z,68.24
2023-01-28T14:49:12.555Z,68.44
2023-01-28T14:51:49.238Z,69.06
2023-01-28T14:54:45.597Z,68.88
2023-01-28T14:57:32.109Z,68.84
2023-01-28T14:59:59.810Z,69.25
2023-01-28T15:02:28.344Z,68.82
2023-01-28T15:04:55.836Z,68.72
2023-01-28T15:07:24.312Z,68.39
2023-01-28T15:10:15.062Z,68.45
2023-01-28T15:12:45.089Z,68.26
2023-01-28T15:15:16.609Z,68.78
2023-01-28T15:17:43.575Z,68.93
2023-01-28T15:20:17.280Z,68.82
2023-01-28T15:22:44.920Z,68.47
2023-01-28T15:25:20.272Z,68.13
2023-01-28T15:27:47.300Z,68.62
2023-01-28T15:30:26.116Z,68.14
2023-01-28T15:32:59.652Z,68.60
2023-01-28T15:35:26.437Z,68.42
2023-01-28T15:37:53.208Z,68.24
2023-01-28T15:40:21.696Z,68.05
2023-01-28T15:42:49.393Z,68.40
2023-01-28T15:45:21.319Z,67.44
2023-01-28T15:47:49.416Z,67.84
2023-01-28T15:50:24.552Z,67.98
2023-01-28T15:52:52.607Z,68.13
2023-01-28T15:55:30.667Z,68.15
2023-01-28T15:57:57.386Z,68.08
2023-01-28T16:00:25.283Z,67.56
2023-01-28T16:02:54.051Z,68.26
2023-01-28T16:05:36.260Z,67.52
2023-01-28T16:08:07.260Z,68.19
2023-01-28T16:10:34.016Z,68.24
2023-01-28T16:13:22.894Z,67.82
2023-01-28T16:15:52.608Z,68.54
2023-01-28T16:18:43.424Z,68.42
2023-01-28T16:21:12.681Z,68.52
2023-01-28T16:23:39.898Z,68.54
2023-01-28T16:26:21.147Z,68.05
2023-01-28T16:28:47.774Z,68.50
2023-01-28T16:31:14.648Z,68.52
2023-01-28T16:33:41.394Z,68.26
2023-01-28T16:36:16.140Z,67.21
2023-01-28T16:38:42.867Z,67.83
2023-01-28T16:41:26.969Z,66.51
2023-01-28T16:43:53.883Z,67.06
2023-01-28T16:46:20.641Z,66.71
2023-01-28T16:48:47.317Z,66.61
2023-01-28T16:51:18.705Z,66.47
2023-01-28T16:53:48.932Z,65.33
2023-01-28T16:56:44.115Z,64.51
2023-01-28T16:59:11.424Z,66.28
2023-01-28T17:01:38.106Z,66.56
2023-01-28T17:04:11.563Z,66.26
2023-01-28T17:06:39.396Z,65.91
2023-01-28T17:09:06.078Z,65.60
2023-01-28T17:11:33.704Z,65.85
2023-01-28T17:14:01.047Z,65.87
2023-01-28T17:16:28.083Z,66.18
2023-01-28T17:18:54.761Z,65.92
2023-01-28T17:21:21.896Z,66.22
2023-01-28T17:23:48.557Z,66.17
2023-01-28T17:26:16.398Z,66.58
2023-01-28T17:28:43.689Z,65.37
2023-01-28T17:31:15.084Z,64.97
2023-01-28T17:33:41.971Z,64.45
2023-01-28T17:36:09.448Z,64.36
2023-01-28T17:38:36.499Z,64.49
2023-01-28T17:41:08.131Z,62.82
2023-01-28T17:43:35.106Z,63.72
2023-01-28T17:46:01.957Z,63.38
2023-01-28T17:48:31.600Z,63.71
2023-01-28T17:50:58.407Z,63.77
2023-01-28T17:53:25.101Z,64.39
2023-01-28T17:55:51.830Z,63.25
2023-01-28T17:58:18.650Z,63.20
2023-01-28T18:00:45.324Z,63.89
2023-01-28T18:03:13.213Z,63.64
2023-01-28T18:05:40.400Z,64.28
2023-01-28T18:08:07.619Z,64.12
2023-01-28T18:10:34.914Z,63.49
2023-01-28T18:13:02.033Z,64.34
2023-01-28T18:15:28.891Z,64.76
2023-01-28T18:17:55.591Z,64.86
2023-01-28T18:20:22.245Z,64.58
2023-01-28T18:22:48.977Z,64.21
2023-01-28T18:25:17.172Z,64.22
2023-01-28T18:27:44.673Z,63.72
2023-01-28T18:30:14.028Z,63.70
2023-01-28T18:32:40.778Z,63.81
2023-01-28T18:35:07.918Z,63.88
2023-01-28T18:37:34.592Z,64.07
2023-01-28T18:40:01.306Z,64.09
2023-01-28T18:42:28.120Z,63.51
2023-01-28T18:44:54.769Z,63.59
2023-01-28T18:47:21.771Z,62.46
2023-01-28T18:49:49.518Z,62.90
2023-01-28T18:52:16.173Z,63.12
2023-01-28T18:54:42.864Z,63.49
2023-01-28T18:57:09.533Z,63.49
2023-01-28T18:59:36.375Z,63.85
2023-01-28T19:02:03.149Z,63.56
2023-01-28T19:04:30.159Z,64.13
2023-01-28T19:06:57.375Z,63.71
2023-01-28T19:09:24.157Z,63.77
2023-01-28T19:11:51.066Z,63.67
2023-01-28T19:14:17.921Z,64.31
2023-01-28T19:16:45.151Z,63.78
2023-01-28T19:19:12.415Z,64.00
2023-01-28T19:21:39.479Z,63.89
2023-01-28T19:24:09.645Z,63.69
2023-01-28T19:26:38.596Z,63.84
2023-01-28T19:29:10.218Z,63.14
2023-01-28T19:31:37.935Z,63.68
2023-01-28T19:34:05.372Z,63.58
2023-01-28T19:36:33.962Z,62.20
2023-01-28T19:39:06.152Z,62.10
2023-01-28T19:41:32.866Z,62.52
2023-01-28T19:43:59.775Z,62.71
2023-01-28T19:46:26.915Z,62.14
2023-01-28T19:48:54.090Z,62.74
2023-01-28T19:51:21.438Z,62.19
2023-01-28T19:53:51.164Z,62.62
2023-01-28T19:56:18.506Z,62.71
2023-01-28T19:58:45.770Z,63.35
2023-01-28T20:01:18.084Z,61.82
2023-01-28T20:03:45.711Z,62.58
2023-01-28T20:06:14.457Z,61.75
2023-01-28T20:08:41.619Z,62.04
2023-01-28T20:11:11.144Z,61.41
2023-01-28T20:13:38.849Z,61.45
2023-01-28T20:16:11.615Z,61.92
2023-01-28T20:18:38.330Z,62.48
2023-01-28T20:21:07.549Z,61.95
2023-01-28T20:23:34.395Z,61.97
2023-01-28T20:26:01.288Z,61.41
2023-01-28T20:28:28.258Z,62.00
2023-01-28T20:30:55.697Z,61.61
2023-01-28T20:33:22.844Z,60.99
2023-01-28T20:35:49.570Z,60.81
2023-01-28T20:38:16.391Z,61.09
2023-01-28T20:40:43.858Z,60.95
2023-01-28T20:43:10.712Z,60.88
2023-01-28T20:45:37.619Z,61.26
2023-01-28T20:48:04.462Z,61.92
2023-01-28T20:50:31.140Z,61.55
2023-01-28T20:52:58.034Z,60.82
2023-01-28T20:55:24.815Z,61.27
2023-01-28T20:57:52.578Z,60.59
2023-01-28T21:00:19.702Z,61.17
2023-01-28T21:02:55.467Z,61.12
2023-01-28T21:05:22.148Z,61.46
2023-01-28T21:07:48.846Z,61.05
2023-01-28T21:10:15.854Z,61.12
2023-01-28T21:12:42.742Z,60.93
2023-01-28T21:15:09.778Z,61.16
2023-01-28T21:17:36.490Z,60.94
2023-01-28T21:20:04.929Z,61.68
2023-01-28T21:22:31.653Z,61.37
2023-01-28T21:24:58.310Z,61.46
2023-01-28T21:27:24.986Z,61.56
2023-01-28T21:29:51.778Z,60.81
2023-01-28T21:32:18.564Z,61.35
2023-01-28T21:34:45.253Z,60.73
2023-01-28T21:37:11.984Z,61.01
2023-01-28T21:39:38.641Z,61.15
2023-01-28T21:42:05.301Z,61.14
2023-01-28T21:44:32.287Z,60.93
2023-01-28T21:46:59.066Z,60.99
2023-01-28T21:49:25.798Z,60.74
2023-01-28T21:51:52.463Z,60.13
2023-01-28T21:54:19.910Z,60.70
2023-01-28T21:56:50.876Z,60.30
2023-01-28T21:59:27.802Z,60.74
2023-01-28T22:01:58.480Z,60.61
2023-01-28T22:04:34.357Z,60.58
2023-01-28T22:07:02.696Z,61.37
2023-01-28T22:09:29.826Z,59.88
2023-01-28T22:11:56.736Z,60.06
2023-01-28T22:14:23.425Z,60.55
2023-01-28T22:16:50.282Z,60.84
2023-01-28T22:19:17.028Z,60.45
2023-01-28T22:21:45.706Z,60.85
2023-01-28T22:24:14.824Z,60.35
2023-01-28T22:26:41.803Z,60.23
2023-01-28T22:29:09.643Z,60.62
2023-01-28T22:31:36.775Z,60.53
2023-01-28T22:34:04.200Z,60.55
2023-01-28T22:36:32.872Z,60.14
2023-01-28T22:39:02.862Z,60.30
2023-01-28T22:41:29.655Z,60.20
2023-01-28T22:43:56.482Z,60.42
2023-01-28T22:46:24.135Z,60.39
2023-01-28T22:48:50.869Z,60.42
2023-01-28T22:51:20.837Z,60.58
2023-01-28T22:53:48.213Z,60.57
2023-01-28T22:56:15.866Z,61.50
2023-01-28T22:58:42.877Z,61.72
2023-01-28T23:01:09.717Z,61.45
2023-01-28T23:03:36.495Z,60.97
2023-01-28T23:06:04.700Z,61.69
2023-01-28T23:08:32.332Z,62.51
2023-01-28T23:11:01.789Z,62.44
2023-01-28T23:13:49.186Z,62.24
2023-01-28T23:16:34.497Z,62.94
2023-01-28T23:19:20.060Z,63.24
2023-01-28T23:22:05.335Z,62.88
2023-01-28T23:24:32.950Z,62.38
2023-01-28T23:27:02.897Z,62.54
2023-01-28T23:29:31.276Z,62.84
2023-01-28T23:32:01.226Z,63.40
2023-01-28T23:34:34.395Z,63.88
2023-01-28T23:37:02.423Z,64.55
2023-01-28T23:39:29.127Z,64.50
2023-01-28T23:42:12.720Z,64.55
2023-01-28T23:44:40.723Z,64.48
2023-01-28T23:47:07.845Z,64.96
2023-01-28T23:49:34.881Z,64.88
2023-01-28T23:52:01.967Z,64.99
2023-01-28T23:54:29.001Z,64.81
2023-01-28T23:56:55.757Z,65.20
2023-01-28T23:59:22.458Z,65.25
